Time;durP1;ratioP1;P1;durP2;ratioP2;P2;SDS_P1;SDS_P2;PMS_P1;PMS_P2;Temp;Humidity;BMP_temperature;BMP_pressure;BME280_temperature;BME280_humidity;BME280_pressure;Samples;Min_cycle;Max_cycle;Signal;HPM_P1;HPM_P2
2022/04/22 00:00:46;;;;;;;5.80;4.93;;;10.20;56.80;;;10.67;48.39;96483.06;5044814;28;20052;-52
2022/04/22 00:03:14;;;;;;;6.47;5.10;;;10.10;57.00;;;10.61;48.29;96476.66;5044606;28;20287;-53
2022/04/22 00:05:43;;;;;;;6.27;4.73;;;10.00;57.00;;;10.56;48.41;96471.88;5044952;28;20045;-51
2022/04/22 00:08:11;;;;;;;6.63;5.20;;;10.00;57.10;;;10.52;48.34;96472.47;5043193;28;20049;-54
2022/04/22 00:13:25;;;;;;;6.97;5.20;;;9.90;57.60;;;10.40;48.71;96474.81;5044421;28;20216;-55
2022/04/22 00:15:53;;;;;;;7.27;4.83;;;9.70;58.00;;;10.35;48.80;96472.72;5044609;28;20053;-54
2022/04/22 00:18:22;;;;;;;6.57;5.50;;;9.70;58.10;;;10.31;48.69;96468.75;5043115;28;20049;-54
2022/04/22 00:20:50;;;;;;;7.37;5.20;;;9.70;58.30;;;10.27;49.06;96474.63;5044242;28;20060;-54
2022/04/22 00:23:18;;;;;;;7.17;5.53;;;9.60;58.40;;;10.21;49.04;96463.72;5043949;28;20084;-55
2022/04/22 00:25:46;;;;;;;5.83;4.57;;;9.60;58.60;;;10.19;49.01;96473.72;5043727;28;20059;-54
2022/04/22 00:28:14;;;;;;;8.97;4.83;;;9.60;58.50;;;10.17;49.01;96456.31;5043916;28;20045;-56
2022/04/22 00:30:41;;;;;;;6.07;4.80;;;9.60;58.50;;;10.14;49.07;96464.66;5044452;28;20112;-54
2022/04/22 00:33:09;;;;;;;8.00;6.17;;;9.50;58.70;;;10.12;49.04;96464.03;5044169;28;20047;-50
2022/04/22 00:35:37;;;;;;;6.27;4.73;;;9.50;58.60;;;10.07;49.60;96459.28;5043623;28;20057;-52
2022/04/22 00:38:05;;;;;;;8.07;4.80;;;9.50;59.00;;;10.03;49.33;96458.81;5044169;28;20064;-49
2022/04/22 00:40:33;;;;;;;6.93;4.90;;;9.50;59.10;;;10.01;49.20;96457.38;5043962;28;20051;-54
2022/04/22 00:43:17;;;;;;;6.90;5.00;;;9.50;58.80;;;10.01;49.67;96465.34;5044894;28;20050;-54
2022/04/22 00:45:46;;;;;;;7.17;5.17;;;9.50;60.10;;;9.98;49.57;96455.91;5043731;28;20033;-50
2022/04/22 00:48:15;;;;;;;7.60;5.50;;;9.50;59.10;;;9.96;49.49;96457.09;5042551;28;20060;-52
2022/04/22 00:50:44;;;;;;;7.37;5.57;;;9.40;59.40;;;9.92;49.67;96456.63;5043691;28;20374;-54
2022/04/22 00:53:14;;;;;;;7.67;5.73;;;9.40;59.10;;;9.89;49.99;96451.72;5043669;28;20042;-54
2022/04/22 00:55:45;;;;;;;8.33;6.30;;;9.30;59.60;;;9.86;49.91;96447.56;5043315;28;20163;-55
2022/04/22 00:58:13;;;;;;;11.67;5.67;;;9.30;60.00;;;9.81;50.18;96446.50;5044696;28;20083;-52
2022/04/22 01:00:41;;;;;;;10.50;5.27;;;9.20;61.00;;;9.77;49.91;96447.84;5043508;28;20279;-52
2022/04/22 01:03:10;;;;;;;9.90;5.83;;;9.10;59.90;;;9.73;50.26;96450.09;5043472;28;20049;-50
2022/04/22 01:11:16;;;;;;;9.33;5.50;;;9.00;60.10;;;9.64;49.81;96436.06;5037857;28;20059;-54
2022/04/22 01:13:45;;;;;;;9.40;5.83;;;9.00;59.70;;;9.63;50.36;96431.75;5042469;28;20048;-55
2022/04/22 01:16:13;;;;;;;8.63;5.70;;;9.10;60.10;;;9.59;50.50;96427.81;5043395;28;20057;-51
2022/04/22 01:18:41;;;;;;;9.23;5.37;;;9.00;60.50;;;9.55;50.50;96431.03;5042717;28;20049;-51
2022/04/22 01:21:09;;;;;;;8.80;5.33;;;8.90;60.90;;;9.52;50.54;96431.38;5043235;28;20349;-55
2022/04/22 01:23:37;;;;;;;7.40;5.67;;;8.90;61.10;;;9.48;50.63;96416.81;5043831;28;20057;-54
2022/04/22 01:26:05;;;;;;;7.93;5.97;;;8.90;61.00;;;9.45;51.02;96416.19;5042476;28;20067;-53
2022/04/22 01:28:34;;;;;;;9.43;5.43;;;8.90;61.10;;;9.42;50.82;96403.28;5042800;28;20075;-55
2022/04/22 01:31:02;;;;;;;8.17;6.27;;;8.90;61.10;;;9.42;50.86;96407.75;5043012;28;20045;-54
2022/04/22 01:33:30;;;;;;;7.47;6.70;;;8.90;61.20;;;9.40;50.92;96409.78;5043067;28;20045;-53
2022/04/22 01:35:58;;;;;;;8.43;6.17;;;8.90;61.10;;;9.38;51.04;96395.84;5042598;28;20373;-54
2022/04/22 01:38:26;;;;;;;8.93;7.10;;;8.80;61.30;;;9.36;50.84;96395.22;5043523;28;20053;-52
2022/04/22 01:40:57;;;;;;;9.00;6.03;;;8.80;61.50;;;9.35;51.21;96390.91;5042939;28;20045;-55
2022/04/22 01:43:25;;;;;;;8.13;6.63;;;8.80;61.70;;;9.33;51.19;96380.47;5043594;28;20066;-54
2022/04/22 01:45:53;;;;;;;12.03;7.13;;;8.80;61.60;;;9.32;51.27;96397.41;5042125;28;20051;-51
2022/04/22 01:48:21;;;;;;;13.10;7.73;;;8.70;61.90;;;9.27;51.51;96387.34;5042096;28;20049;-56
2022/04/22 01:50:49;;;;;;;9.80;6.43;;;8.70;62.30;;;9.26;51.67;96395.50;5042548;28;20056;-55
2022/04/22 01:53:17;;;;;;;10.27;6.90;;;8.70;62.20;;;9.27;51.59;96389.19;5042408;28;20053;-54
2022/04/22 01:55:46;;;;;;;9.27;6.87;;;8.70;62.20;;;9.25;51.72;96385.88;5042163;28;20045;-52
2022/04/22 01:58:13;;;;;;;11.47;7.30;;;8.80;62.00;;;9.26;51.67;96379.56;5042490;28;20044;-52
2022/04/22 02:00:41;;;;;;;12.53;7.87;;;8.80;62.00;;;9.23;52.03;96374.63;5042582;28;20243;-51
2022/04/22 02:03:09;;;;;;;9.73;7.30;;;8.80;62.10;;;9.18;52.32;96371.69;5042752;28;20049;-52
2022/04/22 02:05:37;;;;;;;12.63;8.43;;;8.70;63.10;;;9.15;52.39;96372.03;5042209;28;20060;-51
2022/04/22 02:08:06;;;;;;;10.37;7.47;;;8.60;63.40;;;9.14;52.44;96373.06;5042464;28;20049;-53
2022/04/22 02:10:33;;;;;;;11.87;7.43;;;8.60;63.70;;;9.14;52.74;96375.72;5042290;28;20363;-51
2022/04/22 02:13:01;;;;;;;11.50;8.70;;;8.70;63.60;;;9.15;52.68;96370.22;5043000;28;20336;-54
2022/04/22 02:15:29;;;;;;;9.90;7.13;;;8.70;63.60;;;9.16;52.81;96363.91;5042000;28;20243;-50
2022/04/22 02:17:57;;;;;;;11.83;8.40;;;8.70;63.60;;;9.15;52.87;96362.28;5042498;28;20056;-53
2022/04/22 02:20:25;;;;;;;11.93;8.93;;;8.70;64.30;;;9.15;53.03;96354.31;5042307;28;20046;-52
2022/04/22 02:22:53;;;;;;;12.03;8.30;;;8.70;64.00;;;9.16;52.99;96358.59;5042055;28;20037;-51
2022/04/22 02:25:21;;;;;;;11.20;8.10;;;8.70;63.90;;;9.16;53.09;96350.63;5042096;28;20049;-52
2022/04/22 02:30:36;;;;;;;12.23;9.50;;;8.70;64.10;;;9.17;53.10;96357.59;5042235;28;20037;-53
2022/04/22 02:33:04;;;;;;;16.53;9.13;;;8.70;64.40;;;9.15;53.19;96356.13;5042124;28;20047;-51
2022/04/22 02:35:32;;;;;;;12.13;9.00;;;8.60;65.00;;;9.10;53.19;96354.00;5041748;28;20051;-50
2022/04/22 02:38:00;;;;;;;11.63;8.83;;;8.50;65.20;;;9.07;53.13;96349.91;5042148;28;20362;-52
2022/04/22 02:46:01;;;;;;;13.40;9.80;;;8.40;65.80;;;8.96;53.45;96338.94;5044416;28;20050;-54
2022/04/22 02:48:29;;;;;;;13.67;9.23;;;8.40;65.60;;;8.97;53.72;96341.38;5044767;28;20049;-53
2022/04/22 02:50:57;;;;;;;14.37;10.57;;;8.40;65.60;;;8.97;53.69;96336.06;5046028;28;20240;-54
2022/04/22 02:53:25;;;;;;;13.53;9.27;;;8.50;65.80;;;8.96;53.70;96337.09;5046396;28;20244;-54
2022/04/22 02:55:54;;;;;;;14.27;11.03;;;8.50;65.80;;;8.95;53.75;96338.06;5045566;28;20048;-52
2022/04/22 02:58:21;;;;;;;15.10;11.20;;;8.40;66.70;;;8.94;54.13;96336.44;5046034;28;20057;-50
2022/04/22 03:00:49;;;;;;;17.47;10.47;;;8.40;66.60;;;8.91;54.10;96331.50;5044387;28;20057;-52
2022/04/22 03:03:17;;;;;;;17.97;11.23;;;8.40;66.80;;;8.91;54.17;96328.84;5045824;28;20061;-51
2022/04/22 03:05:45;;;;;;;14.60;10.83;;;8.40;67.10;;;8.86;54.60;96324.09;5044263;28;20041;-49
2022/04/22 03:08:13;;;;;;;18.50;11.77;;;8.30;67.20;;;8.86;54.06;96324.09;5046127;28;20071;-50
2022/04/22 03:10:41;;;;;;;15.67;11.50;;;8.30;67.20;;;8.86;54.48;96328.59;5045672;28;20056;-53
2022/04/22 03:13:09;;;;;;;18.57;10.80;;;8.40;67.30;;;8.83;54.96;96323.63;5045506;28;20063;-53
2022/04/22 03:15:38;;;;;;;16.80;11.43;;;8.40;66.90;;;8.78;54.96;96318.88;5045142;28;20053;-54
2022/04/22 03:18:06;;;;;;;16.03;11.03;;;8.40;67.10;;;8.78;55.30;96321.53;5045588;28;20049;-54
2022/04/22 03:20:34;;;;;;;18.73;13.23;;;8.40;67.10;;;8.74;55.61;96314.09;5046114;28;20050;-51
2022/04/22 03:23:02;;;;;;;14.93;11.93;;;8.50;67.20;;;8.68;55.94;96310.34;5045614;28;20053;-54
2022/04/22 03:25:30;;;;;;;18.17;13.07;;;8.50;67.40;;;8.70;55.59;96304.84;5045031;28;20050;-54
2022/04/22 03:27:58;;;;;;;14.20;11.60;;;8.40;67.60;;;8.72;55.07;96295.69;5045088;28;20151;-52
2022/04/22 03:30:26;;;;;;;18.07;12.17;;;8.40;67.80;;;8.76;55.41;96306.78;5045171;28;20064;-52
2022/04/22 03:32:54;;;;;;;16.47;11.57;;;8.30;68.20;;;8.75;55.32;96300.66;5045188;28;20052;-52
2022/04/22 03:35:22;;;;;;;18.13;12.37;;;8.30;68.30;;;8.75;55.21;96305.16;5045054;28;20051;-51
2022/04/22 03:37:50;;;;;;;20.67;13.67;;;8.30;68.50;;;8.74;55.22;96311.44;5045081;28;20049;-54
2022/04/22 03:40:18;;;;;;;18.43;12.97;;;8.20;68.90;;;8.71;55.41;96306.53;5045064;28;20247;-55
2022/04/22 03:42:46;;;;;;;20.73;13.50;;;8.20;69.10;;;8.68;55.54;96315.66;5045142;28;20361;-51
2022/04/22 03:45:14;;;;;;;17.40;12.70;;;8.20;69.10;;;8.66;55.50;96305.22;5045700;28;20053;-55
2022/04/22 03:47:41;;;;;;;20.57;13.13;;;8.20;69.20;;;8.66;55.58;96307.84;5044518;28;20056;-52
2022/04/22 03:50:09;;;;;;;17.63;12.70;;;8.10;69.50;;;8.65;55.38;96305.41;5044651;28;20046;-52
2022/04/22 03:52:37;;;;;;;17.73;12.63;;;8.10;69.50;;;8.64;55.63;96306.41;5044654;28;20049;-51
2022/04/22 03:55:06;;;;;;;19.40;13.50;;;8.10;70.10;;;8.61;55.88;96315.56;5044887;28;20055;-52
2022/04/22 04:00:21;;;;;;;19.63;13.50;;;8.10;69.70;;;8.59;55.79;96306.16;5044931;28;20340;-52
2022/04/22 04:02:48;;;;;;;18.13;13.13;;;8.10;69.70;;;8.59;56.02;96306.97;5044863;28;20268;-54
2022/04/22 04:05:16;;;;;;;20.00;13.27;;;8.10;69.70;;;8.59;55.54;96304.31;5045121;28;20049;-52
2022/04/22 04:07:44;;;;;;;21.23;14.03;;;8.10;69.50;;;8.56;55.68;96294.03;5044218;28;20041;-49
2022/04/22 04:16:00;;;;;;;21.30;14.67;;;7.90;70.00;;;8.38;56.28;96294.38;5044021;28;20059;-50
2022/04/22 04:18:34;;;;;;;22.27;13.23;;;7.90;70.90;;;8.37;56.24;96305.16;5044756;28;20053;-53
2022/04/22 04:23:53;;;;;;;17.23;12.70;;;7.80;71.00;;;8.36;56.52;96308.81;5044134;28;20049;-51
2022/04/22 04:26:24;;;;;;;20.03;13.13;;;7.80;71.10;;;8.36;56.12;96319.44;5043754;28;20053;-52
2022/04/22 04:28:53;;;;;;;20.23;14.27;;;7.80;70.80;;;8.33;56.21;96309.97;5044151;28;20332;-54
2022/04/22 04:31:21;;;;;;;20.90;14.00;;;7.80;70.60;;;8.29;56.10;96312.16;5044058;28;20052;-53
2022/04/22 04:33:49;;;;;;;21.33;13.87;;;7.70;70.60;;;8.22;56.32;96313.91;5044402;28;20052;-54
2022/04/22 04:36:17;;;;;;;20.17;13.50;;;7.70;70.80;;;8.21;56.47;96306.94;5043404;28;20045;-53
2022/04/22 04:38:45;;;;;;;23.57;16.20;;;7.70;71.00;;;8.18;56.29;96309.97;5042864;28;20213;-51
2022/04/22 04:41:13;;;;;;;48.27;16.60;;;7.60;71.30;;;8.17;56.79;96307.50;5044078;28;20054;-53
2022/04/22 04:43:42;;;;;;;24.77;17.27;;;7.60;71.90;;;8.15;57.25;96315.59;5043830;28;20351;-51
2022/04/22 04:46:10;;;;;;;20.57;14.30;;;7.60;72.30;;;8.16;56.68;96311.97;5043483;28;20049;-53
2022/04/22 04:48:38;;;;;;;25.90;14.73;;;7.60;72.40;;;8.16;57.11;96316.44;5042571;28;20041;-52
2022/04/22 04:51:06;;;;;;;22.73;15.07;;;7.60;72.60;;;8.15;56.87;96309.50;5044407;28;20049;-54
2022/04/22 04:53:34;;;;;;;25.67;16.67;;;7.60;72.40;;;8.15;57.05;96312.16;5044343;28;20056;-53
2022/04/22 04:56:02;;;;;;;23.40;16.43;;;7.60;72.70;;;8.16;57.23;96313.78;5043610;28;20053;-52
2022/04/22 04:58:30;;;;;;;34.07;21.07;;;7.70;72.50;;;8.16;56.78;96314.63;5043447;28;20053;-51
2022/04/22 05:00:58;;;;;;;24.53;16.03;;;7.60;72.60;;;8.08;57.77;96314.66;5043428;28;20145;-55
2022/04/22 05:03:26;;;;;;;24.50;16.50;;;7.50;74.10;;;8.07;57.88;96313.84;5043085;28;20049;-49
2022/04/22 05:05:54;;;;;;;22.30;15.67;;;7.50;74.30;;;8.08;57.92;96312.00;5043102;28;20055;-50
2022/04/22 05:08:22;;;;;;;29.77;17.77;;;7.60;74.50;;;8.13;58.17;96314.16;5043246;28;20235;-52
2022/04/22 05:10:50;;;;;;;23.70;16.83;;;7.60;74.30;;;8.15;57.79;96323.56;5043256;28;20080;-51
2022/04/22 05:13:18;;;;;;;26.27;16.37;;;7.70;74.20;;;8.16;58.58;96319.94;5043454;28;20056;-50
2022/04/22 05:15:47;;;;;;;24.23;16.77;;;7.70;74.50;;;8.20;58.05;96320.38;5043564;28;20067;-50
2022/04/22 05:18:15;;;;;;;29.23;17.40;;;7.80;74.20;;;8.24;58.17;96319.03;5043443;28;20053;-51
2022/04/22 05:20:43;;;;;;;26.27;16.47;;;7.80;74.10;;;8.26;58.51;96317.84;5044086;28;20246;-52
2022/04/22 05:23:11;;;;;;;29.63;17.67;;;7.90;74.40;;;8.26;58.28;96309.06;5043116;28;20056;-51
2022/04/22 05:25:38;;;;;;;27.20;17.77;;;7.80;74.30;;;8.29;58.20;96314.00;5042631;28;20048;-50
2022/04/22 05:28:07;;;;;;;24.50;15.87;;;7.90;74.60;;;8.32;58.44;96312.81;5042821;28;20050;-52
2022/04/22 05:33:21;;;;;;;26.10;16.60;;;7.90;75.20;;;8.28;58.92;96307.06;5043308;28;20059;-50
2022/04/22 05:35:49;;;;;;;28.27;17.90;;;7.80;75.60;;;8.24;58.96;96311.91;5043012;28;20061;-48
2022/04/22 05:38:17;;;;;;;25.13;17.53;;;7.90;75.60;;;8.26;58.98;96309.88;5042881;28;20051;-52
2022/04/22 05:40:46;;;;;;;23.93;16.57;;;7.90;75.50;;;8.33;58.96;96322.41;5042718;28;20049;-54
2022/04/22 05:43:14;;;;;;;26.43;17.50;;;7.90;75.50;;;8.37;58.80;96308.59;5042755;28;20054;-53
2022/04/22 05:45:42;;;;;;;24.30;16.63;;;8.00;75.30;;;8.37;59.51;96313.09;5042539;28;20240;-52
2022/04/22 05:48:10;;;;;;;23.13;16.43;;;8.10;75.00;;;8.35;59.72;96307.97;5042853;28;20061;-51
2022/04/22 05:50:38;;;;;;;26.00;17.17;;;8.10;74.90;;;8.37;59.85;96316.56;5042451;28;20046;-54
2022/04/22 05:53:06;;;;;;;29.57;17.97;;;8.20;74.60;;;8.37;59.66;96316.56;5042657;28;20049;-54
2022/04/22 05:55:34;;;;;;;26.13;17.37;;;8.10;75.50;;;8.41;59.44;96315.25;5042031;28;20255;-52
2022/04/22 05:58:02;;;;;;;26.10;16.67;;;8.10;76.00;;;8.43;59.54;96310.59;5041903;28;20058;-53
2022/04/22 06:00:31;;;;;;;24.40;16.43;;;8.10;75.80;;;8.46;59.34;96312.88;5042640;28;20049;-51
2022/04/22 06:03:01;;;;;;;25.90;17.43;;;8.20;75.50;;;8.43;60.50;96307.09;5041299;28;20049;-52
2022/04/22 06:05:29;;;;;;;28.07;17.70;;;8.10;77.50;;;8.41;59.86;96307.31;5041045;28;20049;-51
2022/04/22 06:10:51;;;;;;;24.43;15.03;;;8.00;77.30;;;8.43;60.18;96315.06;5042577;28;20056;-53
2022/04/22 06:13:19;;;;;;;23.17;16.30;;;8.20;76.80;;;8.52;59.91;96306.03;5042375;28;20049;-43
2022/04/22 06:15:47;;;;;;;25.60;17.27;;;8.30;76.30;;;8.57;60.06;96308.97;5041995;28;20247;-43
2022/04/22 06:18:14;;;;;;;25.73;15.50;;;8.30;76.10;;;8.54;60.29;96305.84;5042111;28;20052;-43
2022/04/22 06:20:42;;;;;;;26.80;17.10;;;8.20;76.80;;;8.57;59.98;96302.81;5042302;28;20056;-43
2022/04/22 06:23:10;;;;;;;26.77;18.77;;;8.20;77.80;;;8.50;60.47;96302.72;5042210;28;20045;-43
2022/04/22 06:25:45;;;;;;;25.20;17.17;;;8.10;78.00;;;8.56;60.32;96302.00;5041445;28;20045;-43
2022/04/22 06:28:13;;;;;;;27.03;15.90;;;8.20;77.40;;;8.62;60.58;96298.63;5041965;28;20085;-44
2022/04/22 06:30:42;;;;;;;23.77;16.67;;;8.30;77.40;;;8.66;60.33;96299.09;5041591;28;20049;-53
2022/04/22 06:33:11;;;;;;;24.80;17.30;;;8.30;76.70;;;8.69;60.62;96308.53;5042125;28;20049;-45
2022/04/22 06:35:39;;;;;;;27.27;17.67;;;8.40;76.70;;;8.66;60.90;96307.03;5041900;28;20041;-47
2022/04/22 06:38:08;;;;;;;24.97;17.30;;;8.40;77.50;;;8.71;60.49;96304.69;5041860;28;20049;-44
2022/04/22 06:46:10;;;;;;;27.73;18.47;;;8.40;78.10;;;8.66;60.97;96289.28;5041684;28;20049;-46
2022/04/22 06:48:39;;;;;;;26.23;17.40;;;8.30;78.60;;;8.72;60.85;96286.91;5041373;28;20049;-46
2022/04/22 06:51:13;;;;;;;24.45;17.20;;;8.40;77.70;;;8.80;60.76;96294.78;5041901;28;20047;-44
2022/04/22 06:53:42;;;;;;;25.90;17.10;;;8.50;77.20;;;8.85;60.85;96287.09;5042404;28;20235;-45
2022/04/22 06:56:13;;;;;;;28.33;18.43;;;8.70;76.50;;;8.90;60.67;96289.19;5041403;28;20048;-47
2022/04/22 06:58:42;;;;;;;27.93;17.07;;;8.70;76.30;;;8.93;60.67;96284.34;5042582;28;20111;-46
2022/04/22 07:01:10;;;;;;;23.00;16.37;;;8.70;76.40;;;9.01;60.42;96289.56;5042207;28;20049;-45
2022/04/22 07:03:58;;;;;;;28.23;19.17;;;8.80;75.90;;;9.02;60.64;96283.25;5041787;28;20382;-46
2022/04/22 07:06:26;;;;;;;24.00;16.70;;;8.80;76.00;;;8.97;60.90;96284.81;5040420;28;20246;-47
2022/04/22 07:08:55;;;;;;;26.00;18.83;;;8.80;76.00;;;9.00;60.37;96287.13;5041830;28;20044;-45
2022/04/22 07:11:24;;;;;;;24.27;16.70;;;8.70;76.20;;;9.04;60.41;96281.25;5041742;28;20343;-46
2022/04/22 07:13:55;;;;;;;25.50;16.93;;;8.80;75.70;;;9.13;60.29;96271.34;5042287;28;20052;-45
2022/04/22 07:16:23;;;;;;;24.67;17.87;;;8.90;75.10;;;9.23;60.13;96265.75;5041644;28;20049;-45
2022/04/22 07:18:52;;;;;;;25.53;16.63;;;9.10;74.80;;;9.36;60.13;96273.03;5041734;28;20045;-47
2022/04/22 07:21:24;;;;;;;26.23;17.60;;;9.30;74.30;;;9.41;60.14;96275.97;5041784;28;20045;-45
2022/04/22 07:23:53;;;;;;;25.67;16.57;;;9.40;73.50;;;9.49;59.95;96273.19;5041688;28;20053;-45
2022/04/22 07:26:22;;;;;;;22.57;16.00;;;9.50;73.20;;;9.62;59.80;96275.16;5041012;28;20052;-44
2022/04/22 07:28:51;;;;;;;21.40;15.47;;;9.60;72.60;;;9.71;59.43;96275.84;5044393;28;20045;-45
2022/04/22 07:31:20;;;;;;;27.20;17.03;;;9.70;72.00;;;9.76;59.04;96278.78;5045492;28;20267;-46
2022/04/22 07:33:49;;;;;;;21.50;15.57;;;9.80;71.00;;;9.86;59.06;96272.13;5045757;28;20049;-48
2022/04/22 07:36:18;;;;;;;26.40;16.50;;;9.90;70.70;;;9.89;58.73;96272.75;5044900;28;20041;-45
2022/04/22 07:38:46;;;;;;;25.23;16.43;;;10.00;69.80;;;9.95;58.36;96274.66;5045818;28;20054;-49
2022/04/22 07:41:18;;;;;;;24.57;15.97;;;10.00;69.80;;;9.96;58.75;96274.47;5045303;28;20051;-45
2022/04/22 07:46:47;;;;;;;22.03;15.40;;;9.90;70.30;;;10.03;58.41;96267.38;5042957;28;20050;-46
2022/04/22 07:49:16;;;;;;;22.40;15.70;;;10.00;70.00;;;10.11;58.08;96268.25;5044120;28;20045;-45
2022/04/22 07:51:44;;;;;;;20.80;14.50;;;10.00;70.10;;;10.18;58.31;96269.97;5045215;28;20053;-44
2022/04/22 07:54:14;;;;;;;20.53;16.00;;;10.10;69.90;;;10.19;58.33;96263.63;5044852;28;20041;-45
2022/04/22 07:56:43;;;;;;;21.00;14.87;;;10.20;69.20;;;10.24;57.91;96269.19;5044595;28;20042;-46
2022/04/22 07:59:11;;;;;;;21.90;15.77;;;10.30;68.70;;;10.33;57.53;96266.41;5044552;28;20052;-46
2022/04/22 08:01:39;;;;;;;20.00;14.83;;;10.30;68.70;;;10.40;57.47;96264.63;5044695;28;20059;-45
2022/04/22 08:04:09;;;;;;;21.40;14.47;;;10.40;68.40;;;10.46;57.74;96261.19;5044546;28;20270;-46
2022/04/22 08:06:38;;;;;;;20.60;14.97;;;10.40;68.60;;;10.55;57.64;96264.53;5044323;28;20049;-45
2022/04/22 08:09:06;;;;;;;24.33;15.87;;;10.50;68.40;;;10.63;57.23;96259.06;5044682;28;20041;-44
2022/04/22 08:11:35;;;;;;;20.03;14.70;;;10.70;68.20;;;10.69;57.44;96260.13;5044708;28;20041;-44
2022/04/22 08:14:03;;;;;;;19.83;15.03;;;10.70;67.80;;;10.75;57.21;96260.13;5044513;28;20243;-44
2022/04/22 08:16:31;;;;;;;19.73;15.37;;;10.80;67.50;;;10.83;56.96;96259.16;5044317;28;20045;-45
2022/04/22 08:18:59;;;;;;;21.63;16.03;;;10.80;66.90;;;10.85;56.57;96262.44;5044425;28;20045;-44
2022/04/22 08:21:34;;;;;;;22.83;16.23;;;10.80;66.50;;;10.90;56.21;96260.03;5044415;28;20053;-44
2022/04/22 08:24:03;;;;;;;20.40;15.27;;;10.90;66.30;;;10.81;56.21;96264.69;5044172;28;20049;-47
2022/04/22 08:26:32;;;;;;;21.77;14.67;;;10.80;66.00;;;10.76;56.19;96256.47;5043910;28;20045;-45
2022/04/22 08:29:00;;;;;;;20.17;15.53;;;10.60;66.30;;;10.64;56.77;96255.34;5044251;28;20045;-45
2022/04/22 08:31:28;;;;;;;23.00;15.57;;;10.40;67.30;;;10.58;56.83;96261.47;5044322;28;20049;-47
2022/04/22 08:33:57;;;;;;;20.07;14.23;;;10.40;67.80;;;10.62;56.74;96260.06;5044164;28;20049;-48
2022/04/22 08:36:29;;;;;;;20.23;15.60;;;10.40;67.60;;;10.71;56.50;96250.09;5043822;28;20048;-46
2022/04/22 08:38:58;;;;;;;20.93;14.37;;;10.60;67.10;;;10.79;56.08;96256.06;5043017;28;20045;-44
2022/04/22 08:41:26;;;;;;;21.50;15.13;;;10.70;66.80;;;10.87;56.09;96254.28;5043147;28;20042;-46
2022/04/22 08:43:59;;;;;;;20.43;15.03;;;10.80;66.40;;;10.93;55.91;96248.16;5044310;28;20052;-45
2022/04/22 08:52:03;;;;;;;24.43;16.90;;;10.90;66.10;;;10.94;56.52;96239.97;5044227;28;20255;-46
2022/04/22 08:54:35;;;;;;;21.33;15.20;;;10.80;67.30;;;10.85;56.39;96238.50;5043134;28;20053;-46
2022/04/22 08:57:03;;;;;;;22.83;15.50;;;10.80;67.30;;;10.87;56.61;96232.97;5042227;28;20045;-45
2022/04/22 08:59:31;;;;;;;19.50;15.17;;;10.80;66.50;;;10.76;56.75;96232.53;5043800;28;20367;-45
2022/04/22 09:01:59;;;;;;;21.13;15.63;;;10.70;66.70;;;10.87;56.82;96232.97;5043638;28;20055;-45
2022/04/22 09:04:27;;;;;;;20.90;15.63;;;10.80;67.00;;;10.83;56.48;96230.69;5042622;28;20343;-45
2022/04/22 09:06:56;;;;;;;21.23;15.43;;;10.90;66.70;;;10.88;56.45;96230.13;5042124;28;20044;-45
2022/04/22 09:09:24;;;;;;;23.20;14.93;;;10.80;66.60;;;10.89;56.73;96229.09;5043453;28;20053;-47
2022/04/22 09:12:11;;;;;;;26.20;15.87;;;10.90;66.60;;;10.93;56.74;96227.66;5043209;28;20056;-47
2022/04/22 09:14:49;;;;;;;18.60;13.83;;;10.90;66.60;;;11.09;56.02;96223.88;5043469;28;20037;-46
2022/04/22 09:17:23;;;;;;;19.73;14.50;;;11.10;65.70;;;11.18;55.47;96217.31;5043015;28;20047;-47
2022/04/22 09:19:53;;;;;;;19.45;14.98;;;11.20;64.90;;;11.29;55.42;96220.44;5043011;28;20049;-46
2022/04/22 09:22:26;;;;;;;16.97;13.33;;;11.40;64.70;;;11.38;55.47;96221.88;5042200;28;20049;-48
2022/04/22 09:24:56;;;;;;;19.65;14.77;;;11.50;64.80;;;11.49;55.16;96217.81;5043855;28;20059;-46
2022/04/22 09:27:34;;;;;;;22.80;14.33;;;11.60;64.10;;;11.60;55.30;96217.25;5043344;28;20053;-45
2022/04/22 09:30:09;;;;;;;18.83;14.02;;;11.70;64.00;;;11.63;54.51;96219.47;5042992;28;20076;-45
2022/04/22 09:32:40;;;;;;;21.17;16.47;;;11.70;62.80;;;11.62;54.64;96213.34;5043687;28;20075;-48
2022/04/22 09:35:21;;;;;;;19.63;14.23;;;11.70;63.20;;;11.73;54.57;96203.09;5042934;28;20056;-47
2022/04/22 09:43:35;;;;;;;20.57;14.90;;;11.80;63.20;;;11.64;55.07;96202.47;5042931;28;20243;-46
2022/04/22 09:46:30;;;;;;;20.47;15.53;;;11.70;63.60;;;11.65;54.43;96198.81;5042505;28;20225;-46
2022/04/22 09:48:59;;;;;;;19.13;14.40;;;11.70;63.00;;;11.67;54.98;96195.91;5042795;28;20041;-45
2022/04/22 09:51:30;;;;;;;18.77;13.68;;;11.80;64.00;;;11.72;54.19;96202.28;5042496;28;20239;-45
2022/04/22 09:54:17;;;;;;;21.88;13.95;;;11.90;62.20;;;11.72;54.22;96198.78;5042742;28;20244;-46
2022/04/22 09:56:56;;;;;;;18.65;13.60;;;11.90;62.40;;;11.90;54.56;96201.69;5042192;28;20255;-45
2022/04/22 09:59:26;;;;;;;20.05;13.90;;;12.00;62.60;;;11.94;53.59;96191.44;5042620;28;20045;-44
2022/04/22 10:01:55;;;;;;;18.58;12.70;;;12.20;61.50;;;12.02;53.93;96196.59;5042721;28;20056;-44
2022/04/22 10:04:33;;;;;;;17.10;12.57;;;12.30;61.80;;;11.99;53.98;96197.00;5042603;28;20057;-47
2022/04/22 10:07:02;;;;;;;19.45;14.95;;;12.30;61.80;;;12.07;53.75;96196.78;5041980;28;20243;-47
2022/04/22 10:09:34;;;;;;;19.75;13.65;;;12.30;61.50;;;12.04;53.47;96191.88;5042399;28;20051;-44
2022/04/22 10:12:08;;;;;;;18.45;13.35;;;12.30;60.80;;;12.14;53.71;96189.59;5042750;28;20055;-45
2022/04/22 10:14:40;;;;;;;17.73;12.85;;;12.30;61.80;;;12.28;53.75;96198.41;5042772;28;20049;-44
2022/04/22 10:17:10;;;;;;;17.00;12.77;;;12.50;61.30;;;12.36;53.27;96194.72;5041824;28;20049;-45
2022/04/22 10:19:38;;;;;;;17.67;13.13;;;12.50;60.90;;;12.40;52.89;96196.75;5041244;28;20046;-45
2022/04/22 10:22:10;;;;;;;17.23;12.43;;;12.70;60.40;;;12.58;52.83;96189.94;5041294;28;20059;-44
2022/04/22 10:24:40;;;;;;;18.27;13.68;;;12.80;60.30;;;12.64;52.81;96185.59;5042456;28;20067;-45
2022/04/22 10:27:08;;;;;;;18.35;13.15;;;12.90;59.70;;;12.69;52.50;96178.59;5041761;28;20041;-44
2022/04/22 10:29:40;;;;;;;17.92;13.45;;;12.90;59.30;;;12.74;52.38;96189.50;5041073;28;20217;-45
2022/04/22 10:32:11;;;;;;;18.98;13.93;;;13.00;59.30;;;12.73;52.46;96179.81;5041654;28;20050;-45
2022/04/22 10:34:43;;;;;;;19.02;14.45;;;13.00;59.10;;;12.82;52.41;96176.94;5041081;28;20042;-46
2022/04/22 10:37:28;;;;;;;16.25;12.43;;;13.10;59.90;;;12.82;52.07;96179.63;5041638;28;20050;-47
2022/04/22 10:39:57;;;;;;;19.85;14.45;;;13.10;58.60;;;12.84;52.53;96177.56;5041212;28;20060;-44
2022/04/22 10:42:38;;;;;;;17.67;12.93;;;13.20;59.20;;;12.97;52.09;96183.66;5042179;28;20370;-46
2022/04/22 10:47:56;;;;;;;16.45;12.63;;;13.40;58.40;;;13.24;51.69;96175.53;5042138;28;20051;-45
2022/04/22 10:50:25;;;;;;;17.30;13.52;;;13.50;58.30;;;13.28;51.66;96173.22;5041859;28;20051;-45
2022/04/22 10:53:03;;;;;;;18.17;13.02;;;13.60;58.30;;;13.34;51.76;96173.22;5042055;28;20045;-47
2022/04/22 10:55:40;;;;;;;17.75;12.98;;;13.70;58.30;;;13.44;52.06;96163.94;5041690;28;20064;-45
2022/04/22 10:58:28;;;;;;;17.40;13.25;;;13.70;58.70;;;13.51;51.08;96167.34;5041652;28;20239;-46
2022/04/22 11:00:57;;;;;;;15.55;12.57;;;13.80;57.00;;;13.55;50.96;96166.72;5041945;28;20044;-47
2022/04/22 11:03:36;;;;;;;17.13;12.80;;;13.90;57.10;;;13.64;50.79;96164.59;5045509;28;20049;-47
2022/04/22 11:06:11;;;;;;;16.52;13.38;;;13.90;57.10;;;13.70;50.74;96161.06;5045549;28;20065;-49
2022/04/22 11:08:41;;;;;;;18.50;13.20;;;13.90;57.50;;;13.76;50.57;96152.19;5044889;28;20053;-46
2022/04/22 11:11:15;;;;;;;17.10;13.38;;;14.10;57.20;;;13.80;50.45;96152.53;5045898;28;20047;-47
2022/04/22 11:13:50;;;;;;;18.70;13.50;;;14.10;56.70;;;13.85;49.84;96152.72;5045868;28;20048;-44
2022/04/22 11:16:23;;;;;;;17.02;13.35;;;14.10;55.70;;;13.85;49.86;96150.03;5045762;28;20335;-46
2022/04/22 11:19:11;;;;;;;19.33;14.32;;;14.20;55.80;;;13.90;49.76;96142.19;5046197;28;20053;-44
2022/04/22 11:21:40;;;;;;;17.13;13.68;;;14.20;55.60;;;13.93;50.48;96147.09;5045566;28;20057;-44
2022/04/22 11:24:15;;;;;;;16.85;12.50;;;14.30;56.80;;;13.98;49.53;96135.75;5045851;28;20063;-45